sensor_id;sensor_type;location;lat;lon;timestamp;temperature;humidity
3202;DHT22;34843;48.744;8.958;2023-02-15T00:01:44;-1.60;99.90
3202;DHT22;34843;48.744;8.958;2023-02-15T00:04:13;-1.60;99.90
3202;DHT22;34843;48.744;8.958;2023-02-15T00:06:39;-1.60;99.90
3202;DHT22;34843;48.744;8.958;2023-02-15T00:09:05;-1.70;99.90
3202;DHT22;34843;48.744;8.958;2023-02-15T00:11:31;-1.60;99.90
3202;DHT22;34843;48.744;8.958;2023-02-15T00:16:35;-1.70;99.90
3202;DHT22;34843;48.744;8.958;2023-02-15T00:19:02;-1.70;99.90
3202;DHT22;34843;48.744;8.958;2023-02-15T00:21:29;-1.70;99.90
3202;DHT22;34843;48.744;8.958;2023-02-15T00:23:56;-1.70;99.90
3202;DHT22;34843;48.744;8.958;2023-02-15T00:26:22;-1.70;99.90
3202;DHT22;34843;48.744;8.958;2023-02-15T00:28:47;-1.70;99.90
3202;DHT22;34843;48.744;8.958;2023-02-15T00:31:13;-1.70;99.90
3202;DHT22;34843;48.744;8.958;2023-02-15T00:33:39;-1.70;99.90
3202;DHT22;34843;48.744;8.958;2023-02-15T00:36:07;-1.80;99.90
3202;DHT22;34843;48.744;8.958;2023-02-15T00:38:34;-1.80;99.90
3202;DHT22;34843;48.744;8.958;2023-02-15T00:41:03;-1.90;99.90
3202;DHT22;34843;48.744;8.958;2023-02-15T00:43:30;-1.90;99.90
3202;DHT22;34843;48.744;8.958;2023-02-15T00:45:56;-1.90;99.90
3202;DHT22;34843;48.744;8.958;2023-02-15T00:48:22;-1.80;99.90
3202;DHT22;34843;48.744;8.958;2023-02-15T00:50:53;-1.90;99.90
3202;DHT22;34843;48.744;8.958;2023-02-15T00:53:20;-1.80;99.90
3202;DHT22;34843;48.744;8.958;2023-02-15T00:55:46;-1.80;99.90
3202;DHT22;34843;48.744;8.958;2023-02-15T00:58:12;-1.90;99.90
3202;DHT22;34843;48.744;8.958;2023-02-15T01:00:38;-1.90;99.90
3202;DHT22;34843;48.744;8.958;2023-02-15T01:03:05;-2.00;99.90
3202;DHT22;34843;48.744;8.958;2023-02-15T01:05:31;-2.00;99.90
3202;DHT22;34843;48.744;8.958;2023-02-15T01:07:58;-1.90;99.90
3202;DHT22;34843;48.744;8.958;2023-02-15T01:10:24;-1.90;99.90
3202;DHT22;34843;48.744;8.958;2023-02-15T01:12:51;-1.90;99.90
3202;DHT22;34843;48.744;8.958;2023-02-15T01:15:17;-2.00;99.90
3202;DHT22;34843;48.744;8.958;2023-02-15T01:17:43;-2.00;99.90
3202;DHT22;34843;48.744;8.958;2023-02-15T01:20:11;-2.00;99.90
3202;DHT22;34843;48.744;8.958;2023-02-15T01:22:37;-2.00;99.90
3202;DHT22;34843;48.744;8.958;2023-02-15T01:25:02;-2.00;99.90
3202;DHT22;34843;48.744;8.958;2023-02-15T01:27:28;-2.00;99.90
3202;DHT22;34843;48.744;8.958;2023-02-15T01:29:56;-2.00;99.90
3202;DHT22;34843;48.744;8.958;2023-02-15T01:32:21;-2.10;99.90
3202;DHT22;34843;48.744;8.958;2023-02-15T01:34:47;-2.10;99.90
3202;DHT22;34843;48.744;8.958;2023-02-15T01:37:12;-2.10;99.90
3202;DHT22;34843;48.744;8.958;2023-02-15T01:39:38;-2.10;99.90
3202;DHT22;34843;48.744;8.958;2023-02-15T01:42:03;-2.20;99.90
3202;DHT22;34843;48.744;8.958;2023-02-15T01:47:36;-2.30;99.90
3202;DHT22;34843;48.744;8.958;2023-02-15T01:50:09;-2.40;99.90
3202;DHT22;34843;48.744;8.958;2023-02-15T01:52:40;-2.40;99.90
3202;DHT22;34843;48.744;8.958;2023-02-15T01:55:09;-2.40;99.90
3202;DHT22;34843;48.744;8.958;2023-02-15T01:57:35;-2.40;99.90
3202;DHT22;34843;48.744;8.958;2023-02-15T02:00:04;-2.50;99.90
3202;DHT22;34843;48.744;8.958;2023-02-15T02:02:31;-2.50;99.90
3202;DHT22;34843;48.744;8.958;2023-02-15T02:05:00;-2.50;99.90
3202;DHT22;34843;48.744;8.958;2023-02-15T02:07:33;-2.50;99.90
3202;DHT22;34843;48.744;8.958;2023-02-15T02:10:01;-2.50;99.90
3202;DHT22;34843;48.744;8.958;2023-02-15T02:12:26;-2.50;99.90
3202;DHT22;34843;48.744;8.958;2023-02-15T02:14:52;-2.50;99.90
3202;DHT22;34843;48.744;8.958;2023-02-15T02:17:42;-2.50;99.90
3202;DHT22;34843;48.744;8.958;2023-02-15T02:23:31;-2.50;99.90
3202;DHT22;34843;48.744;8.958;2023-02-15T02:29:06;-2.50;99.90
3202;DHT22;34843;48.744;8.958;2023-02-15T02:32:02;-2.60;99.90
3202;DHT22;34843;48.744;8.958;2023-02-15T02:34:47;-2.60;99.90
3202;DHT22;34843;48.744;8.958;2023-02-15T02:37:30;-2.60;99.90
3202;DHT22;34843;48.744;8.958;2023-02-15T02:40:08;-2.70;99.90
3202;DHT22;34843;48.744;8.958;2023-02-15T02:42:41;-2.70;99.90
3202;DHT22;34843;48.744;8.958;2023-02-15T02:47:54;-2.50;99.90
3202;DHT22;34843;48.744;8.958;2023-02-15T02:50:24;-2.60;99.90
3202;DHT22;34843;48.744;8.958;2023-02-15T02:52:52;-2.60;99.90
3202;DHT22;34843;48.744;8.958;2023-02-15T02:55:36;-2.70;99.90
3202;DHT22;34843;48.744;8.958;2023-02-15T03:00:59;-2.70;99.90
3202;DHT22;34843;48.744;8.958;2023-02-15T03:03:48;-2.70;99.90
3202;DHT22;34843;48.744;8.958;2023-02-15T03:06:40;-2.70;99.90
3202;DHT22;34843;48.744;8.958;2023-02-15T03:09:28;-2.80;99.90
3202;DHT22;34843;48.744;8.958;2023-02-15T03:12:00;-2.70;99.90
3202;DHT22;34843;48.744;8.958;2023-02-15T03:14:28;-2.70;99.90
3202;DHT22;34843;48.744;8.958;2023-02-15T03:16:55;-2.80;99.90
3202;DHT22;34843;48.744;8.958;2023-02-15T03:19:25;-2.70;99.90
3202;DHT22;34843;48.744;8.958;2023-02-15T03:21:56;-2.70;99.90
3202;DHT22;34843;48.744;8.958;2023-02-15T03:24:34;-2.80;99.90
3202;DHT22;34843;48.744;8.958;2023-02-15T03:27:03;-2.80;99.90
3202;DHT22;34843;48.744;8.958;2023-02-15T03:29:32;-2.80;99.90
3202;DHT22;34843;48.744;8.958;2023-02-15T03:32:00;-2.80;99.90
3202;DHT22;34843;48.744;8.958;2023-02-15T03:34:28;-2.80;99.90
3202;DHT22;34843;48.744;8.958;2023-02-15T03:37:04;-2.80;99.90
3202;DHT22;34843;48.744;8.958;2023-02-15T03:39:42;-3.00;99.90
3202;DHT22;34843;48.744;8.958;2023-02-15T03:42:30;-2.90;99.90
3202;DHT22;34843;48.744;8.958;2023-02-15T03:45:11;-3.00;99.90
3202;DHT22;34843;48.744;8.958;2023-02-15T03:47:41;-3.00;99.90
3202;DHT22;34843;48.744;8.958;2023-02-15T03:50:18;-3.00;99.90
3202;DHT22;34843;48.744;8.958;2023-02-15T03:53:07;-3.10;99.90
3202;DHT22;34843;48.744;8.958;2023-02-15T03:55:34;-3.10;99.90
3202;DHT22;34843;48.744;8.958;2023-02-15T03:58:00;-3.10;99.90
3202;DHT22;34843;48.744;8.958;2023-02-15T04:00:52;-3.10;99.90
3202;DHT22;34843;48.744;8.958;2023-02-15T04:03:44;-3.00;99.90
3202;DHT22;34843;48.744;8.958;2023-02-15T04:06:11;-3.00;99.90
3202;DHT22;34843;48.744;8.958;2023-02-15T04:08:36;-3.00;99.90
3202;DHT22;34843;48.744;8.958;2023-02-15T04:11:20;-3.00;99.90
3202;DHT22;34843;48.744;8.958;2023-02-15T04:13:46;-3.10;99.90
3202;DHT22;34843;48.744;8.958;2023-02-15T04:16:11;-3.10;99.90
3202;DHT22;34843;48.744;8.958;2023-02-15T04:18:39;-3.10;99.90
3202;DHT22;34843;48.744;8.958;2023-02-15T04:21:25;-3.20;99.90
3202;DHT22;34843;48.744;8.958;2023-02-15T04:24:10;-3.20;99.90
3202;DHT22;34843;48.744;8.958;2023-02-15T04:26:55;-3.20;99.90
3202;DHT22;34843;48.744;8.958;2023-02-15T04:29:24;-3.10;99.90
3202;DHT22;34843;48.744;8.958;2023-02-15T04:31:52;-3.20;99.90
3202;DHT22;34843;48.744;8.958;2023-02-15T04:34:18;-3.20;99.90
3202;DHT22;34843;48.744;8.958;2023-02-15T04:36:43;-3.20;99.90
3202;DHT22;34843;48.744;8.958;2023-02-15T04:39:11;-3.20;99.90
3202;DHT22;34843;48.744;8.958;2023-02-15T04:41:37;-3.20;99.90
3202;DHT22;34843;48.744;8.958;2023-02-15T04:44:03;-3.20;99.90
3202;DHT22;34843;48.744;8.958;2023-02-15T04:46:28;-3.20;99.90
3202;DHT22;34843;48.744;8.958;2023-02-15T04:48:55;-3.20;99.90
3202;DHT22;34843;48.744;8.958;2023-02-15T04:51:20;-3.20;99.90
3202;DHT22;34843;48.744;8.958;2023-02-15T04:53:46;-3.30;99.90
3202;DHT22;34843;48.744;8.958;2023-02-15T04:56:11;-3.30;99.90
3202;DHT22;34843;48.744;8.958;2023-02-15T04:58:37;-3.20;99.90
3202;DHT22;34843;48.744;8.958;2023-02-15T05:01:09;-3.20;99.90
3202;DHT22;34843;48.744;8.958;2023-02-15T05:03:34;-3.20;99.90
3202;DHT22;34843;48.744;8.958;2023-02-15T05:06:00;-3.20;99.90
3202;DHT22;34843;48.744;8.958;2023-02-15T05:08:26;-3.20;99.90
3202;DHT22;34843;48.744;8.958;2023-02-15T05:10:52;-3.20;99.90
3202;DHT22;34843;48.744;8.958;2023-02-15T05:13:17;-3.20;99.90
3202;DHT22;34843;48.744;8.958;2023-02-15T05:15:47;-3.20;99.90
3202;DHT22;34843;48.744;8.958;2023-02-15T05:18:13;-3.00;99.90
3202;DHT22;34843;48.744;8.958;2023-02-15T05:20:39;-3.10;99.90
3202;DHT22;34843;48.744;8.958;2023-02-15T05:23:04;-3.10;99.90
3202;DHT22;34843;48.744;8.958;2023-02-15T05:25:30;-3.00;99.90
3202;DHT22;34843;48.744;8.958;2023-02-15T05:28:14;-3.00;99.90
3202;DHT22;34843;48.744;8.958;2023-02-15T05:31:07;-2.90;99.90
3202;DHT22;34843;48.744;8.958;2023-02-15T05:33:33;-2.80;99.90
3202;DHT22;34843;48.744;8.958;2023-02-15T05:35:59;-3.70;99.90
3202;DHT22;34843;48.744;8.958;2023-02-15T05:38:25;-2.70;99.90
3202;DHT22;34843;48.744;8.958;2023-02-15T05:40:51;-2.70;99.90
3202;DHT22;34843;48.744;8.958;2023-02-15T05:43:18;-2.70;99.90
3202;DHT22;34843;48.744;8.958;2023-02-15T05:45:46;-2.70;99.90
3202;DHT22;34843;48.744;8.958;2023-02-15T05:48:12;-2.70;99.90
3202;DHT22;34843;48.744;8.958;2023-02-15T05:50:38;-2.60;99.90
3202;DHT22;34843;48.744;8.958;2023-02-15T05:53:03;-2.60;99.90
3202;DHT22;34843;48.744;8.958;2023-02-15T05:55:29;-2.60;99.90
3202;DHT22;34843;48.744;8.958;2023-02-15T05:57:54;-2.60;99.90
3202;DHT22;34843;48.744;8.958;2023-02-15T06:00:20;-2.60;99.90
3202;DHT22;34843;48.744;8.958;2023-02-15T06:02:45;-2.70;99.90
3202;DHT22;34843;48.744;8.958;2023-02-15T06:05:11;-2.80;99.90
3202;DHT22;34843;48.744;8.958;2023-02-15T06:07:36;-2.90;99.90
3202;DHT22;34843;48.744;8.958;2023-02-15T06:10:02;-3.00;99.90
3202;DHT22;34843;48.744;8.958;2023-02-15T06:12:28;-3.00;99.90
3202;DHT22;34843;48.744;8.958;2023-02-15T06:14:53;-3.10;99.90
3202;DHT22;34843;48.744;8.958;2023-02-15T06:17:19;-3.10;99.90
3202;DHT22;34843;48.744;8.958;2023-02-15T06:19:44;-3.20;99.90
3202;DHT22;34843;48.744;8.958;2023-02-15T06:22:10;-3.20;99.90
3202;DHT22;34843;48.744;8.958;2023-02-15T06:24:35;-3.30;99.90
3202;DHT22;34843;48.744;8.958;2023-02-15T06:27:01;-3.30;99.90
3202;DHT22;34843;48.744;8.958;2023-02-15T06:29:26;-3.30;99.90
3202;DHT22;34843;48.744;8.958;2023-02-15T06:31:52;-3.30;99.90
3202;DHT22;34843;48.744;8.958;2023-02-15T06:34:17;-3.20;99.90
3202;DHT22;34843;48.744;8.958;2023-02-15T06:36:43;-3.20;99.90
3202;DHT22;34843;48.744;8.958;2023-02-15T06:39:08;-3.20;99.90
3202;DHT22;34843;48.744;8.958;2023-02-15T06:41:34;-3.20;99.90
3202;DHT22;34843;48.744;8.958;2023-02-15T06:43:59;-3.20;99.90
3202;DHT22;34843;48.744;8.958;2023-02-15T06:46:25;-3.20;99.90
3202;DHT22;34843;48.744;8.958;2023-02-15T06:48:51;-3.10;99.90
3202;DHT22;34843;48.744;8.958;2023-02-15T06:51:16;-3.00;99.90
3202;DHT22;34843;48.744;8.958;2023-02-15T06:53:42;-3.00;99.90
3202;DHT22;34843;48.744;8.958;2023-02-15T06:56:08;-2.90;99.90
3202;DHT22;34843;48.744;8.958;2023-02-15T06:58:38;-2.90;99.90
3202;DHT22;34843;48.744;8.958;2023-02-15T07:01:05;-2.90;99.90
3202;DHT22;34843;48.744;8.958;2023-02-15T07:03:31;-2.80;99.90
3202;DHT22;34843;48.744;8.958;2023-02-15T07:05:58;-2.70;99.90
3202;DHT22;34843;48.744;8.958;2023-02-15T07:08:25;-2.70;99.90
3202;DHT22;34843;48.744;8.958;2023-02-15T07:10:52;-2.00;99.90
3202;DHT22;34843;48.744;8.958;2023-02-15T07:13:19;-1.00;99.90
3202;DHT22;34843;48.744;8.958;2023-02-15T07:15:45;-0.20;99.90
3202;DHT22;34843;48.744;8.958;2023-02-15T07:18:11;0.90;99.90
3202;DHT22;34843;48.744;8.958;2023-02-15T07:20:37;1.80;99.90
3202;DHT22;34843;48.744;8.958;2023-02-15T07:23:04;2.30;99.90
3202;DHT22;34843;48.744;8.958;2023-02-15T07:25:30;2.20;99.90
3202;DHT22;34843;48.744;8.958;2023-02-15T07:27:57;2.20;99.90
3202;DHT22;34843;48.744;8.958;2023-02-15T07:30:23;2.70;99.90
3202;DHT22;34843;48.744;8.958;2023-02-15T07:32:48;3.00;99.90
3202;DHT22;34843;48.744;8.958;2023-02-15T07:35:33;3.40;99.90
3202;DHT22;34843;48.744;8.958;2023-02-15T07:37:59;4.10;99.90
3202;DHT22;34843;48.744;8.958;2023-02-15T07:40:25;4.50;99.90
3202;DHT22;34843;48.744;8.958;2023-02-15T07:42:51;5.00;99.90
3202;DHT22;34843;48.744;8.958;2023-02-15T07:45:20;5.70;99.90
3202;DHT22;34843;48.744;8.958;2023-02-15T07:47:46;7.10;99.90
3202;DHT22;34843;48.744;8.958;2023-02-15T07:50:12;8.40;99.90
3202;DHT22;34843;48.744;8.958;2023-02-15T07:52:38;9.60;99.90
3202;DHT22;34843;48.744;8.958;2023-02-15T07:55:03;10.30;99.90
3202;DHT22;34843;48.744;8.958;2023-02-15T07:57:30;10.40;99.90
3202;DHT22;34843;48.744;8.958;2023-02-15T07:59:55;10.30;99.90
3202;DHT22;34843;48.744;8.958;2023-02-15T08:02:21;10.00;99.90
3202;DHT22;34843;48.744;8.958;2023-02-15T08:04:46;10.00;99.90
3202;DHT22;34843;48.744;8.958;2023-02-15T08:07:12;10.00;99.90
3202;DHT22;34843;48.744;8.958;2023-02-15T08:09:38;10.20;99.90
3202;DHT22;34843;48.744;8.958;2023-02-15T08:12:03;10.10;99.90
3202;DHT22;34843;48.744;8.958;2023-02-15T08:14:30;9.90;99.90
3202;DHT22;34843;48.744;8.958;2023-02-15T08:16:59;9.90;99.90
3202;DHT22;34843;48.744;8.958;2023-02-15T08:19:29;10.20;99.90
3202;DHT22;34843;48.744;8.958;2023-02-15T08:22:00;10.10;99.90
3202;DHT22;34843;48.744;8.958;2023-02-15T08:24:28;10.00;99.90
3202;DHT22;34843;48.744;8.958;2023-02-15T08:26:55;9.60;99.90
3202;DHT22;34843;48.744;8.958;2023-02-15T08:29:23;8.80;99.90
3202;DHT22;34843;48.744;8.958;2023-02-15T08:31:52;7.90;99.90
3202;DHT22;34843;48.744;8.958;2023-02-15T08:34:19;7.30;99.90
3202;DHT22;34843;48.744;8.958;2023-02-15T08:36:45;7.10;99.90
3202;DHT22;34843;48.744;8.958;2023-02-15T08:39:11;7.40;99.90
3202;DHT22;34843;48.744;8.958;2023-02-15T08:41:38;7.40;99.90
3202;DHT22;34843;48.744;8.958;2023-02-15T08:44:06;6.70;99.90
3202;DHT22;34843;48.744;8.958;2023-02-15T08:46:34;5.90;99.90
3202;DHT22;34843;48.744;8.958;2023-02-15T08:49:00;5.20;99.90
3202;DHT22;34843;48.744;8.958;2023-02-15T08:51:31;4.60;99.90
3202;DHT22;34843;48.744;8.958;2023-02-15T08:53:59;4.10;99.90
3202;DHT22;34843;48.744;8.958;2023-02-15T08:56:27;4.90;99.90
3202;DHT22;34843;48.744;8.958;2023-02-15T08:58:54;3.70;99.90
3202;DHT22;34843;48.744;8.958;2023-02-15T09:01:22;3.60;99.90
3202;DHT22;34843;48.744;8.958;2023-02-15T09:03:51;3.60;99.90
3202;DHT22;34843;48.744;8.958;2023-02-15T09:06:20;3.50;99.90
3202;DHT22;34843;48.744;8.958;2023-02-15T09:08:46;3.50;99.90
3202;DHT22;34843;48.744;8.958;2023-02-15T09:11:18;3.60;99.90
3202;DHT22;34843;48.744;8.958;2023-02-15T09:13:48;3.60;99.90
3202;DHT22;34843;48.744;8.958;2023-02-15T09:16:14;3.60;99.90
3202;DHT22;34843;48.744;8.958;2023-02-15T09:18:42;3.80;99.90
3202;DHT22;34843;48.744;8.958;2023-02-15T09:21:14;3.90;99.90
3202;DHT22;34843;48.744;8.958;2023-02-15T09:23:41;3.90;99.90
3202;DHT22;34843;48.744;8.958;2023-02-15T09:26:12;4.00;99.90
3202;DHT22;34843;48.744;8.958;2023-02-15T09:28:38;4.20;99.90
3202;DHT22;34843;48.744;8.958;2023-02-15T09:31:25;4.30;99.90
3202;DHT22;34843;48.744;8.958;2023-02-15T09:33:51;4.50;99.90
3202;DHT22;34843;48.744;8.958;2023-02-15T09:36:34;4.60;99.90
3202;DHT22;34843;48.744;8.958;2023-02-15T09:47:02;5.30;99.90
3202;DHT22;34843;48.744;8.958;2023-02-15T09:49:50;5.40;99.90
3202;DHT22;34843;48.744;8.958;2023-02-15T10:15:09;6.50;99.90
3202;DHT22;34843;48.744;8.958;2023-02-15T10:20:25;6.80;99.90
3202;DHT22;34843;48.744;8.958;2023-02-15T10:23:01;6.80;99.90
3202;DHT22;34843;48.744;8.958;2023-02-15T10:28:45;7.00;99.90
3202;DHT22;34843;48.744;8.958;2023-02-15T10:34:22;7.30;99.90
3202;DHT22;34843;48.744;8.958;2023-02-15T10:37:24;7.40;99.90
3202;DHT22;34843;48.744;8.958;2023-02-15T10:56:41;8.30;99.90
3202;DHT22;34843;48.744;8.958;2023-02-15T10:59:41;8.50;99.90
3202;DHT22;34843;48.744;8.958;2023-02-15T11:12:28;9.20;99.90
3202;DHT22;34843;48.744;8.958;2023-02-15T11:14:58;9.30;99.90
3202;DHT22;34843;48.744;8.958;2023-02-15T11:17:30;9.40;99.90
3202;DHT22;34843;48.744;8.958;2023-02-15T11:20:21;9.50;99.90
3202;DHT22;34843;48.744;8.958;2023-02-15T11:22:50;9.60;99.90
3202;DHT22;34843;48.744;8.958;2023-02-15T11:25:23;9.60;99.90
3202;DHT22;34843;48.744;8.958;2023-02-15T11:27:49;9.70;99.90
3202;DHT22;34843;48.744;8.958;2023-02-15T11:30:24;9.80;99.90
3202;DHT22;34843;48.744;8.958;2023-02-15T11:32:54;9.80;99.90
3202;DHT22;34843;48.744;8.958;2023-02-15T11:35:37;9.90;99.90
3202;DHT22;34843;48.744;8.958;2023-02-15T11:38:31;10.00;99.90
3202;DHT22;34843;48.744;8.958;2023-02-15T11:41:09;10.10;99.90
3202;DHT22;34843;48.744;8.958;2023-02-15T11:44:03;10.20;99.90
3202;DHT22;34843;48.744;8.958;2023-02-15T11:46:31;10.20;99.90
3202;DHT22;34843;48.744;8.958;2023-02-15T11:48:57;10.30;99.90
3202;DHT22;34843;48.744;8.958;2023-02-15T11:51:24;10.30;99.90
3202;DHT22;34843;48.744;8.958;2023-02-15T11:53:52;10.40;99.90
3202;DHT22;34843;48.744;8.958;2023-02-15T11:56:20;10.50;99.90
3202;DHT22;34843;48.744;8.958;2023-02-15T12:01:34;10.80;99.90
3202;DHT22;34843;48.744;8.958;2023-02-15T12:04:24;10.80;99.90
3202;DHT22;34843;48.744;8.958;2023-02-15T12:07:03;10.80;99.90
3202;DHT22;34843;48.744;8.958;2023-02-15T12:10:00;10.80;99.90
3202;DHT22;34843;48.744;8.958;2023-02-15T12:12:32;10.90;99.90
3202;DHT22;34843;48.744;8.958;2023-02-15T12:15:00;10.90;99.90
3202;DHT22;34843;48.744;8.958;2023-02-15T12:17:35;10.90;99.90
3202;DHT22;34843;48.744;8.958;2023-02-15T12:20:29;10.90;99.90
3202;DHT22;34843;48.744;8.958;2023-02-15T12:22:58;11.00;99.90
3202;DHT22;34843;48.744;8.958;2023-02-15T12:25:35;11.00;99.90
3202;DHT22;34843;48.744;8.958;2023-02-15T12:28:02;11.00;99.90
3202;DHT22;34843;48.744;8.958;2023-02-15T12:30:31;11.10;99.90
3202;DHT22;34843;48.744;8.958;2023-02-15T12:35:31;11.40;99.90
3202;DHT22;34843;48.744;8.958;2023-02-15T12:38:05;11.60;99.90
3202;DHT22;34843;48.744;8.958;2023-02-15T12:40:32;11.60;99.90
3202;DHT22;34843;48.744;8.958;2023-02-15T12:42:58;11.70;99.90
3202;DHT22;34843;48.744;8.958;2023-02-15T12:45:34;11.80;99.90
3202;DHT22;34843;48.744;8.958;2023-02-15T12:50:39;12.10;99.90
3202;DHT22;34843;48.744;8.958;2023-02-15T12:53:19;12.10;99.90
3202;DHT22;34843;48.744;8.958;2023-02-15T12:56:00;12.00;99.90
3202;DHT22;34843;48.744;8.958;2023-02-15T12:58:27;11.90;99.90
3202;DHT22;34843;48.744;8.958;2023-02-15T13:01:17;11.80;99.90
3202;DHT22;34843;48.744;8.958;2023-02-15T13:03:59;11.90;99.90
3202;DHT22;34843;48.744;8.958;2023-02-15T13:06:27;11.90;99.90
3202;DHT22;34843;48.744;8.958;2023-02-15T13:08:55;11.80;99.90
3202;DHT22;34843;48.744;8.958;2023-02-15T13:11:32;11.70;99.90
3202;DHT22;34843;48.744;8.958;2023-02-15T13:14:30;11.70;99.90
3202;DHT22;34843;48.744;8.958;2023-02-15T13:16:59;11.50;99.90
3202;DHT22;34843;48.744;8.958;2023-02-15T13:19:47;11.40;99.90
3202;DHT22;34843;48.744;8.958;2023-02-15T13:22:21;11.40;99.90
3202;DHT22;34843;48.744;8.958;2023-02-15T13:24:51;11.40;99.90
3202;DHT22;34843;48.744;8.958;2023-02-15T13:27:21;11.50;99.90
3202;DHT22;34843;48.744;8.958;2023-02-15T13:29:53;11.50;99.90
3202;DHT22;34843;48.744;8.958;2023-02-15T13:32:32;11.40;99.90
3202;DHT22;34843;48.744;8.958;2023-02-15T13:35:00;11.40;99.90
3202;DHT22;34843;48.744;8.958;2023-02-15T13:38:00;11.30;99.90
3202;DHT22;34843;48.744;8.958;2023-02-15T13:43:21;11.20;99.90
3202;DHT22;34843;48.744;8.958;2023-02-15T13:46:11;11.20;99.90
3202;DHT22;34843;48.744;8.958;2023-02-15T13:54:04;11.20;99.90
3202;DHT22;34843;48.744;8.958;2023-02-15T14:02:37;11.30;99.90
3202;DHT22;34843;48.744;8.958;2023-02-15T14:05:28;11.30;99.90
3202;DHT22;34843;48.744;8.958;2023-02-15T14:10:38;11.30;99.90
3202;DHT22;34843;48.744;8.958;2023-02-15T14:13:31;11.20;99.90
3202;DHT22;34843;48.744;8.958;2023-02-15T14:16:03;11.30;99.90
3202;DHT22;34843;48.744;8.958;2023-02-15T14:18:59;11.30;99.90
3202;DHT22;34843;48.744;8.958;2023-02-15T14:21:37;11.20;99.90
3202;DHT22;34843;48.744;8.958;2023-02-15T14:27:15;11.30;99.90
3202;DHT22;34843;48.744;8.958;2023-02-15T14:29:50;11.30;99.90
3202;DHT22;34843;48.744;8.958;2023-02-15T14:32:38;11.30;99.90
3202;DHT22;34843;48.744;8.958;2023-02-15T14:35:15;11.30;99.90
3202;DHT22;34843;48.744;8.958;2023-02-15T14:46:42;11.30;99.90
3202;DHT22;34843;48.744;8.958;2023-02-15T14:49:32;11.30;99.90
3202;DHT22;34843;48.744;8.958;2023-02-15T14:52:07;11.30;99.90
3202;DHT22;34843;48.744;8.958;2023-02-15T15:04:37;11.10;99.90
3202;DHT22;34843;48.744;8.958;2023-02-15T15:09:43;10.70;99.90
3202;DHT22;34843;48.744;8.958;2023-02-15T15:15:01;10.60;99.90
3202;DHT22;34843;48.744;8.958;2023-02-15T15:19:59;10.50;99.90
3202;DHT22;34843;48.744;8.958;2023-02-15T15:22:27;10.50;99.90
3202;DHT22;34843;48.744;8.958;2023-02-15T15:24:54;10.50;99.90
3202;DHT22;34843;48.744;8.958;2023-02-15T15:46:53;10.00;99.90
3202;DHT22;34843;48.744;8.958;2023-02-15T15:49:26;9.80;99.90
3202;DHT22;34843;48.744;8.958;2023-02-15T15:51:53;9.70;99.90
3202;DHT22;34843;48.744;8.958;2023-02-15T15:54:22;9.60;99.90
3202;DHT22;34843;48.744;8.958;2023-02-15T15:56:55;9.50;99.90
3202;DHT22;34843;48.744;8.958;2023-02-15T15:59:25;9.40;99.90
3202;DHT22;34843;48.744;8.958;2023-02-15T16:01:51;9.20;99.90
3202;DHT22;34843;48.744;8.958;2023-02-15T16:04:29;9.00;99.90
3202;DHT22;34843;48.744;8.958;2023-02-15T16:07:34;8.80;99.90
3202;DHT22;34843;48.744;8.958;2023-02-15T16:10:02;8.60;99.90
3202;DHT22;34843;48.744;8.958;2023-02-15T16:12:30;8.40;99.90
3202;DHT22;34843;48.744;8.958;2023-02-15T16:14:56;8.30;99.90
3202;DHT22;34843;48.744;8.958;2023-02-15T16:17:30;8.10;99.90
3202;DHT22;34843;48.744;8.958;2023-02-15T16:20:26;7.90;99.90
3202;DHT22;34843;48.744;8.958;2023-02-15T16:22:56;7.80;99.90
3202;DHT22;34843;48.744;8.958;2023-02-15T16:25:42;7.60;99.90
3202;DHT22;34843;48.744;8.958;2023-02-15T16:28:13;7.50;99.90
3202;DHT22;34843;48.744;8.958;2023-02-15T16:30:39;7.30;99.90
3202;DHT22;34843;48.744;8.958;2023-02-15T16:33:10;7.10;99.90
3202;DHT22;34843;48.744;8.958;2023-02-15T16:35:52;7.00;99.90
3202;DHT22;34843;48.744;8.958;2023-02-15T16:38:28;6.90;99.90
3202;DHT22;34843;48.744;8.958;2023-02-15T16:40:59;6.70;99.90
3202;DHT22;34843;48.744;8.958;2023-02-15T16:43:29;6.60;99.90
3202;DHT22;34843;48.744;8.958;2023-02-15T16:46:03;6.50;99.90
3202;DHT22;34843;48.744;8.958;2023-02-15T16:48:30;6.40;99.90
3202;DHT22;34843;48.744;8.958;2023-02-15T16:50:57;6.30;99.90
3202;DHT22;34843;48.744;8.958;2023-02-15T16:53:26;6.20;99.90
3202;DHT22;34843;48.744;8.958;2023-02-15T16:55:58;6.20;99.90
3202;DHT22;34843;48.744;8.958;2023-02-15T16:58:45;6.00;99.90
3202;DHT22;34843;48.744;8.958;2023-02-15T17:01:13;5.90;99.90
3202;DHT22;34843;48.744;8.958;2023-02-15T17:03:41;5.80;99.90
3202;DHT22;34843;48.744;8.958;2023-02-15T17:08:45;5.60;99.90
3202;DHT22;34843;48.744;8.958;2023-02-15T17:11:14;5.50;99.90
3202;DHT22;34843;48.744;8.958;2023-02-15T17:16:48;5.20;99.90
3202;DHT22;34843;48.744;8.958;2023-02-15T17:20:11;5.00;99.90
3202;DHT22;34843;48.744;8.958;2023-02-15T17:22:21;4.90;99.90
3202;DHT22;34843;48.744;8.958;2023-02-15T17:24:48;4.80;99.90
3202;DHT22;34843;48.744;8.958;2023-02-15T17:29:57;4.60;99.90
3202;DHT22;34843;48.744;8.958;2023-02-15T17:32:25;4.50;99.90
3202;DHT22;34843;48.744;8.958;2023-02-15T17:37:45;4.30;99.90
3202;DHT22;34843;48.744;8.958;2023-02-15T17:40:31;4.20;99.90
3202;DHT22;34843;48.744;8.958;2023-02-15T17:42:57;4.10;99.90
3202;DHT22;34843;48.744;8.958;2023-02-15T17:45:26;4.00;99.90
3202;DHT22;34843;48.744;8.958;2023-02-15T17:47:55;4.00;99.90
3202;DHT22;34843;48.744;8.958;2023-02-15T17:50:25;3.90;99.90
3202;DHT22;34843;48.744;8.958;2023-02-15T17:52:52;3.70;99.90
3202;DHT22;34843;48.744;8.958;2023-02-15T17:55:21;3.70;99.90
3202;DHT22;34843;48.744;8.958;2023-02-15T17:58:16;3.70;99.90
3202;DHT22;34843;48.744;8.958;2023-02-15T18:00:49;3.60;99.90
3202;DHT22;34843;48.744;8.958;2023-02-15T18:03:46;3.40;99.90
3202;DHT22;34843;48.744;8.958;2023-02-15T18:06:32;3.30;99.90
3202;DHT22;34843;48.744;8.958;2023-02-15T18:09:19;3.30;99.90
3202;DHT22;34843;48.744;8.958;2023-02-15T18:12:30;3.30;99.90
3202;DHT22;34843;48.744;8.958;2023-02-15T18:14:56;3.30;99.90
3202;DHT22;34843;48.744;8.958;2023-02-15T18:17:27;3.30;99.90
3202;DHT22;34843;48.744;8.958;2023-02-15T18:19:54;3.30;99.90
3202;DHT22;34843;48.744;8.958;2023-02-15T18:22:20;3.30;99.90
3202;DHT22;34843;48.744;8.958;2023-02-15T18:24:47;3.30;99.90
3202;DHT22;34843;48.744;8.958;2023-02-15T18:27:13;3.30;99.90
3202;DHT22;34843;48.744;8.958;2023-02-15T18:29:40;3.20;99.90
3202;DHT22;34843;48.744;8.958;2023-02-15T18:32:30;3.10;99.90
3202;DHT22;34843;48.744;8.958;2023-02-15T18:34:57;3.00;99.90
3202;DHT22;34843;48.744;8.958;2023-02-15T18:37:25;2.90;99.90
3202;DHT22;34843;48.744;8.958;2023-02-15T18:39:51;2.80;99.90
3202;DHT22;34843;48.744;8.958;2023-02-15T18:42:27;2.80;99.90
3202;DHT22;34843;48.744;8.958;2023-02-15T18:45:03;2.80;99.90
3202;DHT22;34843;48.744;8.958;2023-02-15T18:47:29;2.70;99.90
3202;DHT22;34843;48.744;8.958;2023-02-15T18:49:54;2.70;99.90
3202;DHT22;34843;48.744;8.958;2023-02-15T18:52:22;2.70;99.90
3202;DHT22;34843;48.744;8.958;2023-02-15T18:54:54;2.60;99.90
3202;DHT22;34843;48.744;8.958;2023-02-15T18:57:23;2.50;99.90
3202;DHT22;34843;48.744;8.958;2023-02-15T18:59:49;2.40;99.90
3202;DHT22;34843;48.744;8.958;2023-02-15T19:02:18;2.30;99.90
3202;DHT22;34843;48.744;8.958;2023-02-15T19:04:45;2.30;99.90
3202;DHT22;34843;48.744;8.958;2023-02-15T19:07:16;2.20;99.90
3202;DHT22;34843;48.744;8.958;2023-02-15T19:09:47;2.20;99.90